Time;durP1;ratioP1;P1;durP2;ratioP2;P2;SDS_P1;SDS_P2;PMS_P1;PMS_P2;Temp;Humidity;BMP_temperature;BMP_pressure;BME280_temperature;BME280_humidity;BME280_pressure;Samples;Min_cycle;Max_cycle;Signal;HPM_P1;HPM_P2
2023/07/16 03:01:06;;;;;;;;;;;27.50;54.80;;;;;;5589870;23;45873;-59
2023/07/16 03:03:31;;;;;;;;;;;27.50;54.80;;;;;;4899083;28;45345;-58
2023/07/16 03:05:56;;;;;;;;;;;27.50;54.80;;;;;;4890391;28;46994;-59
2023/07/16 03:08:26;;;;;;;;;;;27.50;54.80;;;;;;4890093;28;45115;-59
2023/07/16 03:10:51;;;;;;;;;;;27.50;55.40;;;;;;4889220;28;45245;-59
2023/07/16 03:13:17;;;;;;;;;;;27.50;54.60;;;;;;4892142;28;45394;-59
2023/07/16 03:15:42;;;;;;;;;;;27.50;54.60;;;;;;4887378;28;45844;-59
2023/07/16 03:18:08;;;;;;;;;;;27.50;54.50;;;;;;4889470;28;46302;-59
2023/07/16 03:20:33;;;;;;;;;;;27.50;54.50;;;;;;4891800;28;46275;-59
2023/07/16 03:22:59;;;;;;;;;;;27.50;54.30;;;;;;4892815;28;45064;-59
2023/07/16 03:25:24;;;;;;;;;;;27.50;54.30;;;;;;4891633;28;46157;-60
2023/07/16 03:27:50;;;;;;;;;;;27.50;54.40;;;;;;4892247;28;44899;-59
2023/07/16 03:30:15;;;;;;;;;;;27.50;53.90;;;;;;4889433;28;45260;-59
2023/07/16 03:32:40;;;;;;;;;;;27.50;53.80;;;;;;4891949;28;45761;-59
2023/07/16 03:35:06;;;;;;;;;;;27.50;53.70;;;;;;4892893;28;45324;-60
2023/07/16 03:37:31;;;;;;;;;;;27.50;53.60;;;;;;4887315;28;45352;-58
2023/07/16 03:40:01;;;;;;;;;;;27.40;53.60;;;;;;4890890;28;45544;-60
2023/07/16 03:42:26;;;;;;;;;;;27.40;53.40;;;;;;4888490;28;46090;-61
2023/07/16 03:44:52;;;;;;;;;;;27.40;53.40;;;;;;4895889;28;45544;-59
2023/07/16 03:47:17;;;;;;;;;;;27.40;53.40;;;;;;4882084;28;45229;-59
2023/07/16 03:49:43;;;;;;;;;;;27.40;53.40;;;;;;4889360;28;45733;-58
2023/07/16 03:52:08;;;;;;;;;;;27.30;53.40;;;;;;4887970;28;45437;-58
2023/07/16 03:54:34;;;;;;;;;;;27.30;53.30;;;;;;4894289;28;46343;-59
2023/07/16 03:56:59;;;;;;;;;;;27.30;53.30;;;;;;4880746;28;45589;-59
2023/07/16 03:59:25;;;;;;;;;;;27.30;53.20;;;;;;4895390;28;45204;-60
2023/07/16 04:01:50;;;;;;;;;;;27.30;53.10;;;;;;4898552;28;45520;-58
2023/07/16 04:04:15;;;;;;;;;;;27.30;53.00;;;;;;4911180;28;46055;-60
2023/07/16 04:06:41;;;;;;;;;;;27.40;52.90;;;;;;4904569;28;45314;-59
2023/07/16 04:09:06;;;;;;;;;;;27.40;52.80;;;;;;4912353;28;45259;-60
2023/07/16 04:11:32;;;;;;;;;;;27.30;52.70;;;;;;4898082;28;45427;-59
2023/07/16 04:13:57;;;;;;;;;;;27.30;52.40;;;;;;4914347;28;46198;-59
2023/07/16 04:16:23;;;;;;;;;;;27.30;52.30;;;;;;4902008;28;45250;-59
2023/07/16 04:18:48;;;;;;;;;;;27.30;52.10;;;;;;4908774;28;45389;-60
2023/07/16 04:21:14;;;;;;;;;;;27.30;52.00;;;;;;4908512;28;45660;-60
2023/07/16 04:23:39;;;;;;;;;;;27.30;51.90;;;;;;4915245;28;45293;-60
2023/07/16 04:26:05;;;;;;;;;;;27.30;51.80;;;;;;4910392;28;45221;-58
2023/07/16 04:28:30;;;;;;;;;;;27.30;51.80;;;;;;4910715;28;44983;-64
2023/07/16 04:30:56;;;;;;;;;;;27.30;51.70;;;;;;4905095;28;45491;-59
2023/07/16 04:33:21;;;;;;;;;;;27.30;51.60;;;;;;4898022;28;45722;-59
2023/07/16 04:35:47;;;;;;;;;;;27.20;51.50;;;;;;4906740;28;45277;-60
2023/07/16 04:38:12;;;;;;;;;;;27.30;51.60;;;;;;4911993;28;46010;-59
2023/07/16 04:40:37;;;;;;;;;;;27.20;51.40;;;;;;4908525;28;45516;-59
2023/07/16 04:43:03;;;;;;;;;;;27.20;51.50;;;;;;4913016;28;46044;-58
2023/07/16 04:45:28;;;;;;;;;;;27.20;51.50;;;;;;4904846;28;45150;-60
2023/07/16 04:47:54;;;;;;;;;;;27.20;51.50;;;;;;4909041;28;45122;-60
2023/07/16 04:50:19;;;;;;;;;;;27.20;51.60;;;;;;4910062;28;45763;-58
2023/07/16 04:52:45;;;;;;;;;;;27.30;51.60;;;;;;4913180;28;45280;-60
2023/07/16 04:55:12;;;;;;;;;;;27.30;51.40;;;;;;4912292;28;45345;-58
2023/07/16 04:57:37;;;;;;;;;;;27.20;51.10;;;;;;4909419;28;45175;-58
2023/07/16 05:00:05;;;;;;;;;;;27.20;51.00;;;;;;4911348;28;45590;-59
2023/07/16 05:02:31;;;;;;;;;;;27.20;51.00;;;;;;4907096;28;45531;-59
2023/07/16 05:04:56;;;;;;;;;;;27.20;50.70;;;;;;4912221;28;45457;-60
2023/07/16 05:07:22;;;;;;;;;;;27.20;50.70;;;;;;4905150;28;45032;-59
2023/07/16 05:09:47;;;;;;;;;;;27.20;50.70;;;;;;4909926;28;44970;-59
2023/07/16 05:12:13;;;;;;;;;;;27.10;50.50;;;;;;4909492;28;46546;-59
2023/07/16 05:14:45;;;;;;;;;;;27.10;50.40;;;;;;4915578;28;44983;-59
2023/07/16 05:17:11;;;;;;;;;;;27.10;50.30;;;;;;4903882;28;44836;-58
2023/07/16 05:19:37;;;;;;;;;;;27.10;50.10;;;;;;4907896;28;45563;-60
2023/07/16 05:22:02;;;;;;;;;;;27.10;50.10;;;;;;4911097;28;45871;-59
2023/07/16 05:24:27;;;;;;;;;;;27.10;50.10;;;;;;4914908;28;44947;-59
2023/07/16 05:26:54;;;;;;;;;;;27.10;50.00;;;;;;4902636;28;46180;-59
2023/07/16 05:29:19;;;;;;;;;;;27.10;50.00;;;;;;4911165;28;44929;-59
2023/07/16 05:31:46;;;;;;;;;;;27.00;49.90;;;;;;4888470;28;46080;-59
2023/07/16 05:34:12;;;;;;;;;;;27.00;49.90;;;;;;4902628;28;45474;-60
2023/07/16 05:36:37;;;;;;;;;;;27.00;50.00;;;;;;4906630;28;45376;-58
2023/07/16 05:39:02;;;;;;;;;;;27.00;50.00;;;;;;4899052;28;45082;-61
2023/07/16 05:41:28;;;;;;;;;;;27.00;49.90;;;;;;4904741;28;46820;-59
2023/07/16 05:43:53;;;;;;;;;;;27.00;49.80;;;;;;4913900;28;44893;-60
2023/07/16 05:46:19;;;;;;;;;;;26.90;49.60;;;;;;4908853;28;45625;-59
2023/07/16 05:48:44;;;;;;;;;;;26.90;49.50;;;;;;4914978;28;44710;-58
2023/07/16 05:51:10;;;;;;;;;;;26.90;49.40;;;;;;4909644;28;46485;-59
2023/07/16 05:53:35;;;;;;;;;;;26.90;49.50;;;;;;4919786;28;45333;-59
2023/07/16 05:56:01;;;;;;;;;;;26.80;49.50;;;;;;4912555;28;45834;-59
2023/07/16 05:58:26;;;;;;;;;;;26.90;49.50;;;;;;4921088;28;44675;-60
2023/07/16 06:00:52;;;;;;;;;;;26.80;49.40;;;;;;4905013;28;45874;-60
2023/07/16 06:03:18;;;;;;;;;;;26.80;49.50;;;;;;4913154;28;45090;-60
2023/07/16 06:05:44;;;;;;;;;;;26.80;49.50;;;;;;4910458;28;45192;-60
2023/07/16 06:08:09;;;;;;;;;;;26.80;49.50;;;;;;4918152;28;45222;-57
2023/07/16 06:10:35;;;;;;;;;;;26.80;49.60;;;;;;4913876;28;47130;-60
2023/07/16 06:13:00;;;;;;;;;;;26.80;49.50;;;;;;4918178;28;45592;-59
2023/07/16 06:15:26;;;;;;;;;;;26.80;49.60;;;;;;4911425;28;45206;-60
2023/07/16 06:17:51;;;;;;;;;;;26.70;49.50;;;;;;4914020;28;45315;-59
2023/07/16 06:20:17;;;;;;;;;;;26.70;49.60;;;;;;4917340;28;45914;-59
2023/07/16 06:22:42;;;;;;;;;;;26.70;49.60;;;;;;4917905;28;45276;-60
2023/07/16 06:25:10;;;;;;;;;;;26.70;49.60;;;;;;4910427;28;44732;-59
2023/07/16 06:27:36;;;;;;;;;;;26.70;49.50;;;;;;4913469;28;46112;-58
2023/07/16 06:30:01;;;;;;;;;;;26.70;49.50;;;;;;4917465;28;46995;-59
2023/07/16 06:32:27;;;;;;;;;;;26.80;49.60;;;;;;4908988;28;46067;-59
2023/07/16 06:34:52;;;;;;;;;;;26.70;49.40;;;;;;4916869;28;45237;-59
2023/07/16 06:37:18;;;;;;;;;;;26.80;49.40;;;;;;4915095;28;45679;-59
2023/07/16 06:39:43;;;;;;;;;;;26.70;49.30;;;;;;4917600;28;45823;-58
2023/07/16 06:42:09;;;;;;;;;;;26.70;49.30;;;;;;4911319;28;45472;-59
2023/07/16 06:44:34;;;;;;;;;;;26.70;49.30;;;;;;4916597;28;45141;-58
2023/07/16 06:47:00;;;;;;;;;;;26.70;49.30;;;;;;4909017;28;45878;-59
2023/07/16 06:49:25;;;;;;;;;;;26.70;49.30;;;;;;4909414;28;46093;-59
2023/07/16 06:51:51;;;;;;;;;;;26.70;49.30;;;;;;4913608;28;45204;-59
2023/07/16 06:54:16;;;;;;;;;;;26.80;49.40;;;;;;4915180;28;45383;-58
2023/07/16 06:56:41;;;;;;;;;;;26.70;49.20;;;;;;4915708;28;45739;-60
2023/07/16 06:59:07;;;;;;;;;;;26.70;49.20;;;;;;4906322;28;45217;-59
2023/07/16 07:01:32;;;;;;;;;;;26.70;49.30;;;;;;4907940;28;45188;-59
2023/07/16 07:03:58;;;;;;;;;;;26.70;49.30;;;;;;4915407;28;45302;-61
2023/07/16 07:06:23;;;;;;;;;;;26.70;49.30;;;;;;4914593;28;45442;-59
2023/07/16 07:08:49;;;;;;;;;;;26.60;49.30;;;;;;4914694;28;46248;-59
2023/07/16 07:11:14;;;;;;;;;;;26.70;49.20;;;;;;4914089;28;45089;-59
2023/07/16 07:13:40;;;;;;;;;;;26.60;49.20;;;;;;4918189;28;45673;-59
2023/07/16 07:16:05;;;;;;;;;;;26.60;49.10;;;;;;4909354;28;44787;-60
2023/07/16 07:18:31;;;;;;;;;;;26.60;49.20;;;;;;4911518;28;45889;-60
2023/07/16 07:20:56;;;;;;;;;;;26.60;48.90;;;;;;4905068;28;45385;-60
2023/07/16 07:23:22;;;;;;;;;;;26.50;48.90;;;;;;4916447;28;44686;-60
2023/07/16 07:25:53;;;;;;;;;;;26.50;49.50;;;;;;4915103;28;45653;-60
2023/07/16 07:28:19;;;;;;;;;;;26.40;48.90;;;;;;4914267;28;45146;-51
2023/07/16 08:08:57;;;;;;;6.10;1.35;;;21.40;71.20;;;;;;5062491;27;44654;-46
2023/07/16 08:11:23;;;;;;;3.75;1.40;;;22.20;62.00;;;;;;5011002;28;45177;-47
2023/07/16 08:13:49;;;;;;;3.47;1.17;;;23.00;60.10;;;;;;5040978;28;45251;-47
2023/07/16 08:16:14;;;;;;;2.17;1.10;;;23.70;58.50;;;;;;5011475;28;45292;-47
2023/07/16 08:18:40;;;;;;;3.10;0.93;;;24.20;57.30;;;;;;4996513;28;46030;-47
2023/07/16 08:21:05;;;;;;;3.50;1.20;;;24.60;56.30;;;;;;4999518;28;45398;-47
2023/07/16 08:23:31;;;;;;;3.10;1.00;;;25.00;55.40;;;;;;5011568;28;45185;-46
2023/07/16 08:25:57;;;;;;;4.23;1.10;;;25.30;54.70;;;;;;5000937;28;44993;-46
2023/07/16 08:28:23;;;;;;;2.55;1.17;;;25.50;54.00;;;;;;5014357;28;45279;-47
2023/07/16 08:30:49;;;;;;;2.90;1.08;;;25.70;53.40;;;;;;5002535;28;45186;-47
2023/07/16 08:33:14;;;;;;;2.83;1.10;;;25.90;52.80;;;;;;5017876;28;46060;-46
2023/07/16 08:35:41;;;;;;;5.00;1.00;;;26.10;52.50;;;;;;5002945;28;45130;-47
2023/07/16 08:38:10;;;;;;;2.40;0.90;;;26.20;52.10;;;;;;5016232;28;46202;-47
2023/07/16 08:40:37;;;;;;;2.28;1.13;;;26.40;51.70;;;;;;5003795;28;45474;-47
2023/07/16 08:43:03;;;;;;;2.77;1.00;;;26.50;51.40;;;;;;5023917;28;45309;-47
2023/07/16 08:45:28;;;;;;;2.30;1.00;;;26.60;51.10;;;;;;4984002;28;45412;-47
2023/07/16 08:47:54;;;;;;;1.30;0.90;;;26.70;50.80;;;;;;5012558;28;46762;-47
2023/07/16 08:50:20;;;;;;;2.43;1.10;;;26.70;50.50;;;;;;5003678;28;45031;-46
2023/07/16 08:52:46;;;;;;;2.23;0.90;;;26.80;50.30;;;;;;5020716;28;45176;-47
2023/07/16 08:55:11;;;;;;;1.90;1.10;;;26.90;50.10;;;;;;4996922;28;45457;-46
2023/07/16 08:57:37;;;;;;;2.57;0.90;;;27.00;50.00;;;;;;5015163;28;45300;-46
2023/07/16 09:00:06;;;;;;;2.27;1.07;;;27.00;49.80;;;;;;5014138;28;45400;-49
2023/07/16 09:02:32;;;;;;;2.50;0.95;;;27.00;49.60;;;;;;5008254;28;45040;-47
2023/07/16 09:04:57;;;;;;;2.50;0.88;;;27.10;49.50;;;;;;5018261;28;45672;-47
2023/07/16 09:07:23;;;;;;;1.83;0.80;;;27.10;49.40;;;;;;4998665;28;45907;-47
2023/07/16 09:09:59;;;;;;;2.25;1.08;;;27.20;49.30;;;;;;5008267;28;45256;-45
2023/07/16 09:12:24;;;;;;;2.35;1.13;;;27.20;49.20;;;;;;5005958;28;45647;-47
2023/07/16 09:14:50;;;;;;;1.33;0.90;;;27.20;49.00;;;;;;5021903;28;45068;-46
2023/07/16 09:17:25;;;;;;;2.33;1.00;;;27.30;49.00;;;;;;4991049;28;45973;-45
2023/07/16 09:19:51;;;;;;;1.88;1.00;;;27.30;48.80;;;;;;5004593;28;45422;-45
2023/07/16 09:22:20;;;;;;;1.75;1.08;;;27.30;48.70;;;;;;4990626;28;45608;-46
2023/07/16 09:24:47;;;;;;;1.90;1.10;;;27.30;48.70;;;;;;5005537;28;46156;-45
2023/07/16 09:27:12;;;;;;;1.30;0.80;;;27.30;48.60;;;;;;4985912;28;45354;-45
2023/07/16 09:29:38;;;;;;;1.70;0.70;;;27.40;48.60;;;;;;5003030;28;45181;-46
2023/07/16 09:32:04;;;;;;;1.47;0.90;;;27.40;48.50;;;;;;4986469;28;45667;-46
2023/07/16 09:34:30;;;;;;;1.73;1.00;;;27.40;48.40;;;;;;5001503;28;46123;-47
2023/07/16 09:36:56;;;;;;;1.15;0.90;;;27.40;48.40;;;;;;4991401;28;45615;-45
2023/07/16 09:39:22;;;;;;;1.75;1.00;;;27.50;48.40;;;;;;5003987;28;45406;-46
2023/07/16 09:41:48;;;;;;;1.50;0.70;;;27.40;48.30;;;;;;4958942;28;45378;-46
2023/07/16 09:44:14;;;;;;;2.15;1.00;;;27.40;48.30;;;;;;5017955;28;45678;-45
2023/07/16 09:46:40;;;;;;;1.80;0.90;;;27.40;48.20;;;;;;5001269;28;45939;-46
2023/07/16 09:49:10;;;;;;;1.90;0.80;;;27.40;48.10;;;;;;5014017;28;45279;-46
2023/07/16 09:51:36;;;;;;;1.90;1.00;;;27.50;48.20;;;;;;5008138;28;45387;-45
2023/07/16 09:54:02;;;;;;;2.92;1.05;;;27.50;48.10;;;;;;5018686;28;45437;-45
2023/07/16 09:56:36;;;;;;;1.83;0.85;;;27.40;48.00;;;;;;5008914;28;45973;-45
2023/07/16 09:59:02;;;;;;;1.80;1.17;;;27.50;48.10;;;;;;5026413;28;45376;-45
2023/07/16 10:01:28;;;;;;;2.23;0.80;;;27.50;48.00;;;;;;4976323;28;46560;-53
2023/07/16 10:03:54;;;;;;;2.80;1.10;;;27.50;48.00;;;;;;5014531;28;44841;-46
2023/07/16 10:06:19;;;;;;;2.07;0.90;;;27.50;48.00;;;;;;5007793;28;46134;-46
2023/07/16 10:08:49;;;;;;;1.97;1.10;;;27.50;47.90;;;;;;5023726;28;44801;-46
2023/07/16 10:11:18;;;;;;;2.13;0.98;;;27.50;47.90;;;;;;5011214;28;45717;-47
2023/07/16 10:13:48;;;;;;;2.00;0.90;;;27.50;47.90;;;;;;5025923;28;45215;-45
2023/07/16 10:16:22;;;;;;;3.92;0.95;;;27.50;47.90;;;;;;4998784;28;46233;-46
2023/07/16 10:18:53;;;;;;;1.20;0.80;;;27.50;47.90;;;;;;5012540;28;45683;-45
2023/07/16 10:21:22;;;;;;;1.52;0.80;;;27.50;47.80;;;;;;5004166;28;45278;-46
2023/07/16 10:24:03;;;;;;;1.55;0.90;;;27.50;47.80;;;;;;5015415;28;46210;-45
2023/07/16 10:26:29;;;;;;;2.97;0.90;;;27.50;47.80;;;;;;5010979;28;46147;-46
2023/07/16 10:28:54;;;;;;;2.07;1.00;;;27.60;47.80;;;;;;5018586;28;45808;-45
2023/07/16 10:31:21;;;;;;;2.33;1.00;;;27.60;47.80;;;;;;4997974;28;45504;-46
2023/07/16 10:34:00;;;;;;;1.70;0.80;;;27.50;47.70;;;;;;5019466;28;45850;-45
2023/07/16 10:36:25;;;;;;;1.50;0.80;;;27.60;47.80;;;;;;5022159;28;45919;-47
2023/07/16 10:38:51;;;;;;;2.97;1.00;;;27.50;47.70;;;;;;5021540;28;45856;-45
2023/07/16 10:41:17;;;;;;;2.33;1.10;;;27.60;47.70;;;;;;5007675;28;45172;-44
2023/07/16 10:43:42;;;;;;;2.35;1.05;;;27.60;47.70;;;;;;5016614;28;45259;-46
2023/07/16 10:46:09;;;;;;;1.50;1.00;;;27.50;47.60;;;;;;5000246;28;45905;-45
2023/07/16 10:48:34;;;;;;;1.80;1.10;;;27.50;47.70;;;;;;5017583;28;46074;-46
2023/07/16 10:51:00;;;;;;;1.90;1.17;;;27.50;47.60;;;;;;5016174;28;45836;-46
2023/07/16 10:53:25;;;;;;;1.60;1.00;;;27.60;47.70;;;;;;5019525;28;45674;-46
2023/07/16 10:55:51;;;;;;;2.33;0.90;;;27.50;47.60;;;;;;5011489;28;45096;-45
2023/07/16 10:58:16;;;;;;;1.80;0.98;;;27.60;47.70;;;;;;5024775;28;45876;-45
2023/07/16 11:00:42;;;;;;;2.22;1.10;;;27.50;47.60;;;;;;5003294;28;45329;-45
2023/07/16 11:03:08;;;;;;;3.90;1.03;;;27.60;47.70;;;;;;5012295;28;44715;-45
2023/07/16 11:05:33;;;;;;;1.73;0.90;;;27.50;47.50;;;;;;5008163;28;45465;-45
2023/07/16 11:07:59;;;;;;;1.33;0.90;;;27.60;47.60;;;;;;5014835;28;45433;-45
2023/07/16 11:10:27;;;;;;;1.77;1.10;;;27.60;47.60;;;;;;5009294;28;47389;-46
2023/07/16 11:12:53;;;;;;;1.90;0.98;;;27.50;47.50;;;;;;5021798;28;45326;-45
2023/07/16 11:15:29;;;;;;;1.58;0.90;;;27.60;47.60;;;;;;5008702;28;46189;-46
2023/07/16 11:17:55;;;;;;;2.38;0.98;;;27.60;48.20;;;;;;5007947;28;45086;-44
2023/07/16 11:20:20;;;;;;;1.87;1.00;;;27.60;47.50;;;;;;4988026;28;47213;-44
2023/07/16 11:22:46;;;;;;;1.50;0.75;;;27.50;47.50;;;;;;5024416;28;45135;-44
2023/07/16 11:25:12;;;;;;;2.10;1.00;;;27.60;47.50;;;;;;4991776;28;47571;-44
2023/07/16 11:27:40;;;;;;;2.45;1.10;;;27.50;47.50;;;;;;5012242;28;45520;-43
2023/07/16 11:30:07;;;;;;;2.35;0.98;;;27.60;47.50;;;;;;5007148;28;45723;-44
2023/07/16 11:32:43;;;;;;;1.40;0.90;;;27.50;47.50;;;;;;5008076;28;45304;-44
2023/07/16 11:35:14;;;;;;;1.90;0.90;;;27.50;47.40;;;;;;5016220;28;46263;-43
2023/07/16 11:37:40;;;;;;;2.88;1.02;;;27.50;47.40;;;;;;5016085;28;45219;-43
2023/07/16 11:40:08;;;;;;;1.33;0.80;;;27.60;47.40;;;;;;5009580;28;45377;-43
2023/07/16 11:42:34;;;;;;;1.60;0.95;;;27.60;47.40;;;;;;5013216;28;46141;-44
2023/07/16 11:45:00;;;;;;;2.97;1.00;;;27.60;47.50;;;;;;5018815;28;45871;-45
2023/07/16 11:47:26;;;;;;;2.27;0.97;;;27.50;47.40;;;;;;4993971;28;44809;-44
2023/07/16 11:49:51;;;;;;;1.80;1.00;;;27.60;47.50;;;;;;5019584;28;45231;-44
2023/07/16 11:52:24;;;;;;;1.57;0.83;;;27.60;47.40;;;;;;5011258;28;46206;-44
2023/07/16 11:54:49;;;;;;;1.55;0.90;;;27.60;47.40;;;;;;5027411;28;45185;-43
2023/07/16 11:57:15;;;;;;;1.85;1.00;;;27.60;47.40;;;;;;5010915;28;47220;-44
2023/07/16 11:59:41;;;;;;;2.13;0.95;;;27.60;47.40;;;;;;5020839;28;45439;-44
2023/07/16 12:02:07;;;;;;;2.87;1.03;;;27.60;47.40;;;;;;5001253;28;45223;-43
2023/07/16 12:04:32;;;;;;;1.92;0.98;;;27.60;47.40;;;;;;5017777;28;45783;-44
2023/07/16 12:06:58;;;;;;;1.83;0.80;;;27.50;47.30;;;;;;5009433;28;45148;-46
2023/07/16 12:09:24;;;;;;;2.03;0.90;;;27.60;47.30;;;;;;5024332;28;44892;-43
2023/07/16 12:11:49;;;;;;;2.60;1.20;;;27.60;47.30;;;;;;5003850;28;45573;-44
2023/07/16 12:14:15;;;;;;;1.13;0.80;;;27.60;47.40;;;;;;5024589;28;45832;-44
2023/07/16 12:16:41;;;;;;;1.35;0.93;;;27.60;47.30;;;;;;4993892;28;45282;-43
2023/07/16 12:19:08;;;;;;;1.03;0.70;;;27.60;47.30;;;;;;5016341;28;45203;-43
2023/07/16 12:21:33;;;;;;;1.52;0.85;;;27.60;47.30;;;;;;5001608;28;45445;-44
2023/07/16 12:23:59;;;;;;;0.95;0.70;;;27.60;47.30;;;;;;5012392;28;46136;-44
2023/07/16 12:26:24;;;;;;;1.90;1.10;;;27.60;47.30;;;;;;5002743;28;45436;-43
2023/07/16 12:28:50;;;;;;;2.70;1.00;;;27.60;47.30;;;;;;5018283;28;45439;-43
2023/07/16 12:31:17;;;;;;;1.70;0.97;;;27.60;47.30;;;;;;4996687;28;45695;-43
2023/07/16 12:33:43;;;;;;;1.48;0.70;;;27.60;47.30;;;;;;5014978;28;46185;-44
2023/07/16 12:36:09;;;;;;;1.70;1.08;;;27.60;47.30;;;;;;5001994;28;45351;-44
2023/07/16 12:38:34;;;;;;;1.80;0.90;;;27.60;47.30;;;;;;5019403;28;45439;-45
2023/07/16 12:41:00;;;;;;;2.80;1.30;;;27.60;47.30;;;;;;5003280;28;45575;-44
2023/07/16 12:43:25;;;;;;;1.87;1.03;;;27.60;47.20;;;;;;5014869;28;45288;-42
2023/07/16 12:45:51;;;;;;;1.70;1.10;;;27.60;47.30;;;;;;4999805;28;44711;-44
2023/07/16 12:48:16;;;;;;;2.70;1.23;;;27.60;47.20;;;;;;5014228;28;45474;-43
2023/07/16 12:50:42;;;;;;;1.38;0.90;;;27.60;47.20;;;;;;4998418;28;45289;-44
2023/07/16 12:53:08;;;;;;;1.02;0.90;;;27.60;47.20;;;;;;5012461;28;45963;-44
2023/07/16 12:55:33;;;;;;;1.50;1.05;;;27.60;47.20;;;;;;5006097;28;45755;-45
2023/07/16 12:57:59;;;;;;;1.80;1.10;;;27.60;47.20;;;;;;5016872;28;45757;-43
2023/07/16 13:00:25;;;;;;;1.95;0.90;;;27.60;47.20;;;;;;5001073;28;45736;-44
2023/07/16 13:02:50;;;;;;;1.75;1.00;;;27.60;47.20;;;;;;5017544;28;45967;-43
2023/07/16 13:05:16;;;;;;;1.60;1.00;;;27.60;47.20;;;;;;5008675;28;45427;-44
2023/07/16 13:07:41;;;;;;;2.23;1.10;;;27.60;47.20;;;;;;5015508;28;45576;-46
2023/07/16 13:10:08;;;;;;;2.17;1.10;;;27.60;47.10;;;;;;5015981;28;45011;-44
2023/07/16 13:12:34;;;;;;;1.80;1.10;;;27.60;47.10;;;;;;5016154;28;46591;-43
2023/07/16 13:15:00;;;;;;;2.33;1.17;;;27.60;47.20;;;;;;5020556;28;44982;-44
2023/07/16 13:17:25;;;;;;;2.17;0.97;;;27.60;47.20;;;;;;4996502;28;45326;-44
2023/07/16 13:19:51;;;;;;;1.83;1.00;;;27.60;47.20;;;;;;5023980;28;45295;-43
2023/07/16 13:22:16;;;;;;;2.63;1.08;;;27.60;47.20;;;;;;5002697;28;46085;-44
2023/07/16 13:24:42;;;;;;;1.85;0.95;;;27.60;47.10;;;;;;5005773;28;45182;-43
2023/07/16 13:27:10;;;;;;;1.47;0.90;;;27.60;47.20;;;;;;4996989;28;46165;-43
2023/07/16 13:29:35;;;;;;;2.13;1.13;;;27.60;47.20;;;;;;5022391;28;45710;-44
2023/07/16 13:32:01;;;;;;;2.00;1.07;;;27.60;47.10;;;;;;4984082;28;45504;-44
2023/07/16 13:34:26;;;;;;;2.07;1.10;;;27.60;47.10;;;;;;5012271;28;45258;-44
2023/07/16 13:36:52;;;;;;;1.90;1.13;;;27.60;47.20;;;;;;5012243;28;45938;-43
2023/07/16 13:39:17;;;;;;;2.13;1.15;;;27.60;47.10;;;;;;5023142;28;45562;-43
2023/07/16 13:41:43;;;;;;;1.63;0.90;;;27.60;47.20;;;;;;5005624;28;45291;-45
2023/07/16 13:44:09;;;;;;;2.03;1.23;;;27.60;47.20;;;;;;5014492;28;44617;-44
2023/07/16 13:46:34;;;;;;;3.93;1.00;;;27.60;47.10;;;;;;4996552;28;45542;-43
2023/07/16 13:49:00;;;;;;;2.22;0.90;;;27.60;47.10;;;;;;5024570;28;45722;-44
2023/07/16 13:51:26;;;;;;;2.10;0.90;;;27.60;47.10;;;;;;5010196;28;46082;-44
2023/07/16 13:53:51;;;;;;;2.60;1.17;;;27.60;47.10;;;;;;5014292;28;44814;-44
2023/07/16 13:56:17;;;;;;;1.98;1.00;;;27.60;47.10;;;;;;4998910;28;45489;-44
2023/07/16 13:58:43;;;;;;;1.50;0.90;;;27.60;47.10;;;;;;5010336;28;46122;-44
2023/07/16 14:01:08;;;;;;;2.80;1.50;;;27.60;47.10;;;;;;4993422;28;45763;-44
2023/07/16 14:03:34;;;;;;;2.10;1.17;;;27.60;47.10;;;;;;4993499;28;45590;-44
2023/07/16 14:05:59;;;;;;;2.30;1.10;;;27.60;47.10;;;;;;4995444;28;45755;-44
2023/07/16 14:08:25;;;;;;;1.77;1.10;;;27.60;47.10;;;;;;5059650;27;46788;-45
2023/07/16 14:10:50;;;;;;;1.77;0.80;;;27.60;47.10;;;;;;5064053;27;46556;-45
2023/07/16 14:13:16;;;;;;;1.90;0.93;;;27.60;47.10;;;;;;5062725;27;45343;-44
2023/07/16 14:15:42;;;;;;;1.93;1.00;;;27.60;47.10;;;;;;5038909;27;45233;-44
2023/07/16 14:18:07;;;;;;;1.48;0.98;;;27.60;47.10;;;;;;5067332;27;45381;-43
2023/07/16 14:20:33;;;;;;;1.90;1.07;;;27.60;47.70;;;;;;5058927;27;45627;-43
2023/07/16 14:22:59;;;;;;;1.80;1.00;;;27.60;47.10;;;;;;5075142;27;45575;-44
2023/07/16 14:25:24;;;;;;;2.23;0.90;;;27.60;47.10;;;;;;5054556;27;45737;-45
2023/07/16 14:27:50;;;;;;;1.30;0.90;;;27.60;47.10;;;;;;5066227;27;45768;-43
2023/07/16 14:30:15;;;;;;;1.73;0.90;;;27.60;47.20;;;;;;5054712;27;46287;-43
2023/07/16 14:32:43;;;;;;;1.45;1.00;;;27.60;47.10;;;;;;5060321;27;45404;-45
2023/07/16 14:35:08;;;;;;;2.35;1.13;;;27.60;47.10;;;;;;5065316;27;45237;-45
2023/07/16 14:37:34;;;;;;;1.23;0.98;;;27.60;47.10;;;;;;5044302;27;45737;-45
2023/07/16 14:40:00;;;;;;;2.83;1.07;;;27.60;47.00;;;;;;5079199;27;46138;-42
2023/07/16 14:42:25;;;;;;;1.47;1.00;;;27.60;47.00;;;;;;5062043;27;45777;-43
2023/07/16 14:44:51;;;;;;;1.50;0.93;;;27.60;47.00;;;;;;5071263;27;45508;-45
2023/07/16 14:47:17;;;;;;;1.50;1.00;;;27.60;47.10;;;;;;5048046;27;45278;-44
2023/07/16 14:49:42;;;;;;;2.60;1.30;;;27.60;47.10;;;;;;5072429;27;45244;-44
2023/07/16 14:52:08;;;;;;;1.40;0.87;;;27.60;47.10;;;;;;5028985;27;45577;-43
2023/07/16 14:54:35;;;;;;;1.85;1.08;;;27.60;47.10;;;;;;5074614;27;45317;-43
2023/07/16 14:57:02;;;;;;;1.20;0.87;;;27.60;47.10;;;;;;5064999;27;45274;-45
2023/07/16 14:59:28;;;;;;;1.63;0.80;;;27.60;47.10;;;;;;5072739;27;45331;-44
2023/07/16 15:01:54;;;;;;;2.40;1.00;;;27.60;47.10;;;;;;5059079;27;44794;-43
2023/07/16 15:04:19;;;;;;;1.67;0.93;;;27.60;47.00;;;;;;5080604;27;45191;-44
2023/07/16 15:06:45;;;;;;;1.77;1.00;;;27.60;47.10;;;;;;5065035;27;46133;-42
2023/07/16 15:09:12;;;;;;;2.07;1.07;;;27.60;47.00;;;;;;5077995;27;45941;-44
2023/07/16 15:11:38;;;;;;;2.33;0.98;;;27.60;47.00;;;;;;5063081;27;45950;-44
2023/07/16 15:14:03;;;;;;;1.43;0.87;;;27.60;47.00;;;;;;5078658;27;45327;-43
2023/07/16 15:16:29;;;;;;;2.17;0.90;;;27.60;47.00;;;;;;5063287;27;45756;-46
2023/07/16 15:18:55;;;;;;;1.85;1.05;;;27.70;47.10;;;;;;5076987;27;47197;-45
2023/07/16 15:21:20;;;;;;;2.13;1.20;;;27.60;47.00;;;;;;5065802;27;46124;-43
2023/07/16 15:23:46;;;;;;;2.10;0.90;;;27.60;47.00;;;;;;5074035;27;45476;-47
2023/07/16 15:26:12;;;;;;;2.40;0.90;;;27.60;47.00;;;;;;5070788;27;45687;-45
2023/07/16 15:28:39;;;;;;;1.27;0.88;;;27.60;47.00;;;;;;5055050;27;45388;-44
2023/07/16 15:31:05;;;;;;;1.33;0.90;;;27.60;47.00;;;;;;5057185;27;45298;-44
2023/07/16 15:33:31;;;;;;;1.67;0.93;;;27.60;47.00;;;;;;5083764;27;45399;-44
2023/07/16 15:35:57;;;;;;;1.50;0.80;;;27.70;47.10;;;;;;5051086;27;45759;-44
2023/07/16 15:38:23;;;;;;;1.38;1.00;;;27.60;47.00;;;;;;5057969;27;45232;-44
2023/07/16 15:40:48;;;;;;;2.40;0.90;;;27.60;47.00;;;;;;5061517;27;45490;-44
2023/07/16 15:43:14;;;;;;;1.40;0.90;;;27.70;47.10;;;;;;5074099;27;45301;-42
2023/07/16 15:45:40;;;;;;;1.85;0.98;;;27.70;47.10;;;;;;5053672;27;45557;-44
2023/07/16 15:48:07;;;;;;;1.48;0.95;;;27.70;47.10;;;;;;5078318;27;45222;-43
2023/07/16 15:50:33;;;;;;;1.83;0.90;;;27.70;47.10;;;;;;5065850;27;45402;-43
2023/07/16 15:52:58;;;;;;;2.90;0.85;;;27.60;47.00;;;;;;5076427;27;45569;-45
2023/07/16 15:55:24;;;;;;;1.27;1.00;;;27.70;47.10;;;;;;5067481;27;45513;-43
2023/07/16 15:57:50;;;;;;;1.40;1.00;;;27.70;47.10;;;;;;5055931;27;45345;-43
2023/07/16 16:00:16;;;;;;;1.50;0.93;;;27.70;47.10;;;;;;5058301;27;45557;-43
2023/07/16 16:02:44;;;;;;;1.75;1.10;;;27.70;47.10;;;;;;5045690;27;49941;-42
2023/07/16 16:05:10;;;;;;;1.48;0.65;;;27.70;47.10;;;;;;5060917;27;44960;-43
2023/07/16 16:07:41;;;;;;;1.55;0.90;;;27.70;47.10;;;;;;5061942;27;45274;-43
2023/07/16 16:10:07;;;;;;;1.90;1.10;;;27.70;47.20;;;;;;5051091;27;45201;-44
2023/07/16 16:12:33;;;;;;;1.67;0.90;;;27.70;47.70;;;;;;5069699;27;45412;-42
2023/07/16 16:14:59;;;;;;;1.30;0.80;;;27.70;47.10;;;;;;5060352;27;45345;-44
2023/07/16 16:17:24;;;;;;;1.50;1.00;;;27.70;47.00;;;;;;5050833;27;45699;-44
2023/07/16 16:19:50;;;;;;;1.60;0.80;;;27.70;47.10;;;;;;5081052;27;45580;-43
2023/07/16 16:22:15;;;;;;;1.75;0.90;;;27.70;47.10;;;;;;5066093;27;46411;-42
2023/07/16 16:24:41;;;;;;;2.00;0.80;;;27.70;47.10;;;;;;5068828;27;45485;-44
2023/07/16 16:27:06;;;;;;;1.20;0.83;;;27.70;47.00;;;;;;5023584;27;48012;-44
2023/07/16 16:29:32;;;;;;;1.43;0.90;;;27.70;47.10;;;;;;5079929;27;45952;-45
2023/07/16 16:31:58;;;;;;;1.27;0.90;;;27.70;47.10;;;;;;5056666;27;46009;-46
2023/07/16 16:34:23;;;;;;;1.23;0.90;;;27.70;47.10;;;;;;5084528;27;45013;-45
2023/07/16 16:36:49;;;;;;;2.47;1.00;;;27.70;47.10;;;;;;5065109;27;46177;-44
2023/07/16 16:39:15;;;;;;;1.10;1.00;;;27.70;47.10;;;;;;5083345;27;45399;-46
2023/07/16 16:41:41;;;;;;;0.98;0.80;;;27.70;47.10;;;;;;5069896;27;45257;-46
2023/07/16 16:44:07;;;;;;;1.20;0.90;;;27.70;47.10;;;;;;5087822;27;45417;-45
2023/07/16 16:46:32;;;;;;;1.63;0.93;;;27.60;47.00;;;;;;5057634;27;45968;-46